Time;durP1;ratioP1;P1;durP2;ratioP2;P2;SDS_P1;SDS_P2;PMS_P1;PMS_P2;Temp;Humidity;BMP_temperature;BMP_pressure;BME280_temperature;BME280_humidity;BME280_pressure;Samples;Min_cycle;Max_cycle;Signal;HPM_P1;HPM_P2
2023/07/22 00:00:15;;;;;;;13.38;6.63;;;13.90;99.90;;;;;;5039891;28;20041;-71
2023/07/22 00:02:42;;;;;;;14.13;6.28;;;13.90;99.90;;;;;;5074541;28;20033;-72
2023/07/22 00:05:10;;;;;;;13.00;5.93;;;13.90;99.90;;;;;;5073273;28;20037;-71
2023/07/22 00:07:36;;;;;;;10.93;5.70;;;13.90;99.90;;;;;;5074012;28;20051;-70
2023/07/22 00:10:01;;;;;;;13.98;6.15;;;13.80;99.90;;;;;;5056337;28;20037;-70
2023/07/22 00:12:27;;;;;;;13.07;6.28;;;13.90;99.90;;;;;;5039606;28;20036;-71
2023/07/22 00:14:53;;;;;;;13.60;6.03;;;13.90;99.90;;;;;;5074445;28;20120;-71
2023/07/22 00:17:18;;;;;;;13.50;6.60;;;13.90;99.90;;;;;;5073965;28;20094;-71
2023/07/22 00:19:44;;;;;;;13.38;7.28;;;13.80;99.90;;;;;;5056526;28;20036;-71
2023/07/22 00:22:10;;;;;;;13.43;5.95;;;13.80;99.90;;;;;;5074120;28;20117;-70
2023/07/22 00:24:35;;;;;;;18.05;6.53;;;13.90;99.90;;;;;;5056064;28;20028;-71
2023/07/22 00:27:01;;;;;;;11.40;6.22;;;13.80;99.90;;;;;;5055665;28;20041;-70
2023/07/22 00:29:27;;;;;;;11.00;6.05;;;13.80;99.90;;;;;;5073731;28;20410;-70
2023/07/22 00:31:53;;;;;;;10.90;5.55;;;13.80;99.90;;;;;;5056037;28;20388;-70
2023/07/22 00:34:19;;;;;;;12.48;6.13;;;13.70;99.90;;;;;;5039463;28;20389;-70
2023/07/22 00:36:46;;;;;;;9.77;5.55;;;13.70;99.90;;;;;;5055247;28;20071;-70
2023/07/22 00:39:13;;;;;;;12.80;6.13;;;13.80;99.90;;;;;;5073503;28;20044;-70
2023/07/22 00:41:40;;;;;;;14.50;5.60;;;13.80;99.90;;;;;;5073458;28;20052;-70
2023/07/22 00:44:06;;;;;;;13.60;5.60;;;13.80;99.90;;;;;;5055559;28;20051;-70
2023/07/22 00:46:31;;;;;;;8.45;5.20;;;13.80;99.90;;;;;;5073317;28;20163;-70
2023/07/22 00:48:57;;;;;;;9.23;5.13;;;13.70;99.90;;;;;;5055494;28;20174;-70
2023/07/22 00:51:23;;;;;;;10.40;5.80;;;13.80;99.90;;;;;;5055464;28;20040;-70
2023/07/22 00:53:49;;;;;;;9.70;4.85;;;13.80;99.90;;;;;;5073383;28;20033;-69
2023/07/22 00:56:14;;;;;;;10.13;5.68;;;13.60;99.90;;;;;;5054966;28;20051;-70
2023/07/22 00:58:40;;;;;;;9.50;4.40;;;13.60;99.90;;;;;;5055227;28;20562;-70
2023/07/22 01:01:06;;;;;;;10.25;5.00;;;13.60;99.90;;;;;;5055287;28;20085;-70
2023/07/22 01:03:31;;;;;;;9.75;5.25;;;13.60;99.90;;;;;;5073233;28;20039;-70
2023/07/22 01:06:00;;;;;;;11.02;5.68;;;13.60;99.90;;;;;;5055116;28;20040;-70
2023/07/22 01:08:26;;;;;;;9.88;5.10;;;13.50;99.90;;;;;;5072761;28;20124;-70
2023/07/22 01:10:51;;;;;;;9.82;4.93;;;13.50;99.90;;;;;;5072923;28;20072;-70
2023/07/22 01:13:17;;;;;;;10.20;4.45;;;13.70;99.90;;;;;;5055371;28;20024;-70
2023/07/22 01:15:43;;;;;;;9.65;4.40;;;13.70;99.90;;;;;;5054834;28;20652;-70
2023/07/22 01:18:09;;;;;;;9.48;4.65;;;13.50;99.90;;;;;;5054563;28;20044;-70
2023/07/22 01:20:35;;;;;;;8.07;4.55;;;13.60;99.90;;;;;;5072770;28;20044;-70
2023/07/22 01:23:01;;;;;;;9.10;4.10;;;13.50;99.90;;;;;;5072808;28;20102;-69
2023/07/22 01:25:27;;;;;;;10.05;4.30;;;13.60;99.90;;;;;;5054782;28;20484;-69
2023/07/22 01:27:53;;;;;;;11.93;4.35;;;13.70;99.90;;;;;;5072394;28;20082;-69
2023/07/22 01:30:19;;;;;;;9.75;4.70;;;13.50;99.90;;;;;;5072763;28;20075;-69
2023/07/22 01:32:46;;;;;;;8.65;4.38;;;13.50;99.90;;;;;;5072529;28;20037;-70
2023/07/22 01:35:12;;;;;;;7.90;4.05;;;13.60;99.90;;;;;;5072558;28;20403;-70
2023/07/22 01:37:37;;;;;;;9.10;5.80;;;13.60;99.90;;;;;;5054056;28;20036;-70
2023/07/22 01:40:12;;;;;;;7.15;4.75;;;13.50;99.90;;;;;;5054544;28;20036;-69
2023/07/22 01:42:39;;;;;;;9.25;5.30;;;13.40;99.90;;;;;;5072478;28;20505;-70
2023/07/22 01:45:07;;;;;;;8.35;5.18;;;13.50;99.90;;;;;;5054440;28;20036;-70
2023/07/22 01:47:37;;;;;;;7.55;4.00;;;13.30;99.90;;;;;;5054022;28;20492;-69
2023/07/22 01:50:03;;;;;;;8.18;4.55;;;13.50;99.90;;;;;;5071521;28;20041;-69
2023/07/22 01:52:29;;;;;;;11.07;4.25;;;13.40;99.90;;;;;;5072113;28;20406;-69
2023/07/22 01:54:55;;;;;;;9.88;4.70;;;13.40;99.90;;;;;;5054554;28;20135;-69
2023/07/22 01:57:20;;;;;;;9.45;4.50;;;13.50;99.90;;;;;;5071976;28;20036;-69
2023/07/22 01:59:46;;;;;;;9.40;4.78;;;13.50;99.90;;;;;;5054145;28;20117;-69
2023/07/22 02:02:11;;;;;;;10.50;4.97;;;13.30;99.90;;;;;;5072046;28;20128;-69
2023/07/22 02:04:37;;;;;;;8.80;5.50;;;13.30;99.90;;;;;;5072053;28;20033;-69
2023/07/22 02:07:03;;;;;;;11.35;4.95;;;13.40;99.90;;;;;;5053604;28;20036;-69
2023/07/22 02:09:28;;;;;;;12.63;5.40;;;13.40;99.90;;;;;;5037406;28;20044;-70
2023/07/22 02:11:54;;;;;;;10.88;5.40;;;13.40;99.90;;;;;;5072057;28;20384;-69
2023/07/22 02:14:19;;;;;;;8.57;4.43;;;13.20;99.90;;;;;;5071897;28;20087;-70
2023/07/22 02:16:45;;;;;;;8.75;5.03;;;13.30;99.90;;;;;;5071577;28;20032;-71
2023/07/22 02:19:11;;;;;;;8.98;4.82;;;13.20;99.90;;;;;;5071745;28;20047;-70
2023/07/22 02:21:36;;;;;;;8.40;4.35;;;13.20;99.90;;;;;;5053758;28;20420;-70
2023/07/22 02:24:02;;;;;;;9.70;4.57;;;13.20;99.90;;;;;;5053863;28;20071;-70
2023/07/22 02:26:27;;;;;;;11.57;5.25;;;13.30;99.90;;;;;;5071626;28;20076;-70
2023/07/22 02:28:54;;;;;;;7.95;4.50;;;13.30;99.90;;;;;;5094797;22;20418;-69
2023/07/22 02:31:22;;;;;;;10.73;5.47;;;13.20;99.90;;;;;;5091928;28;20525;-68
2023/07/22 02:33:47;;;;;;;9.02;4.82;;;13.40;99.90;;;;;;5091870;28;20040;-68
2023/07/22 02:36:13;;;;;;;9.85;5.55;;;13.30;99.90;;;;;;5091565;28;20094;-69
2023/07/22 02:38:38;;;;;;;9.25;4.63;;;13.20;99.90;;;;;;5091951;28;20044;-68
2023/07/22 02:41:07;;;;;;;7.53;4.40;;;13.30;99.90;;;;;;5092565;28;20036;-68
2023/07/22 02:43:36;;;;;;;11.05;4.95;;;13.30;99.90;;;;;;5092242;28;20040;-68
2023/07/22 02:46:03;;;;;;;8.32;4.45;;;13.30;99.90;;;;;;5092075;28;20038;-67
2023/07/22 02:48:31;;;;;;;7.60;4.28;;;13.20;99.90;;;;;;5092184;28;20059;-68
2023/07/22 02:51:05;;;;;;;9.10;4.93;;;13.10;99.90;;;;;;5091711;28;20044;-68
2023/07/22 02:53:32;;;;;;;10.25;4.68;;;13.20;99.90;;;;;;5091258;28;20380;-68
2023/07/22 02:55:58;;;;;;;9.50;4.72;;;13.10;99.90;;;;;;5092250;28;20491;-68
2023/07/22 02:58:24;;;;;;;9.10;4.20;;;13.10;99.90;;;;;;5091819;28;20129;-68
2023/07/22 03:00:49;;;;;;;10.32;4.88;;;13.10;99.90;;;;;;5092178;28;20094;-68
2023/07/22 03:03:15;;;;;;;10.60;5.07;;;13.00;99.90;;;;;;5095811;28;20043;-68
2023/07/22 03:05:40;;;;;;;10.68;5.30;;;13.10;99.90;;;;;;5095802;28;20051;-68
2023/07/22 03:08:07;;;;;;;8.25;4.88;;;13.10;99.90;;;;;;5094184;28;20040;-68
2023/07/22 03:10:32;;;;;;;7.80;4.55;;;13.20;99.90;;;;;;5095829;28;20119;-68
2023/07/22 03:12:59;;;;;;;7.47;4.10;;;13.00;99.90;;;;;;5095695;28;20115;-68
2023/07/22 03:15:26;;;;;;;9.25;4.35;;;13.20;99.90;;;;;;5095575;28;20040;-68
2023/07/22 03:17:52;;;;;;;6.93;4.38;;;13.00;99.90;;;;;;5095020;28;20036;-68
2023/07/22 03:20:19;;;;;;;8.07;5.15;;;13.20;99.90;;;;;;5095635;28;20032;-68
2023/07/22 03:22:45;;;;;;;13.23;4.80;;;13.20;99.90;;;;;;5095604;28;20036;-68
2023/07/22 03:25:12;;;;;;;7.28;4.22;;;13.20;99.90;;;;;;5095494;28;20534;-68
2023/07/22 03:27:38;;;;;;;8.48;5.45;;;13.20;99.90;;;;;;5094748;28;20051;-68
2023/07/22 03:30:08;;;;;;;7.13;3.45;;;13.20;99.90;;;;;;5095236;28;20032;-68
2023/07/22 03:32:34;;;;;;;8.27;4.65;;;13.20;99.90;;;;;;5095383;28;20110;-68
2023/07/22 03:35:01;;;;;;;8.40;4.30;;;13.30;99.90;;;;;;5095334;28;20073;-68
2023/07/22 03:37:27;;;;;;;7.78;3.83;;;13.20;99.90;;;;;;5094952;28;20048;-68
2023/07/22 03:39:53;;;;;;;7.93;4.25;;;13.10;99.90;;;;;;5095022;28;20507;-68
2023/07/22 03:42:18;;;;;;;8.57;4.35;;;13.20;99.90;;;;;;5095025;28;20036;-68
2023/07/22 03:44:44;;;;;;;7.05;4.15;;;13.20;99.90;;;;;;5094821;28;20043;-68
2023/07/22 03:47:10;;;;;;;9.80;4.80;;;13.10;99.90;;;;;;5094813;28;20036;-68
2023/07/22 03:49:35;;;;;;;9.07;4.75;;;13.20;99.90;;;;;;5094977;28;20047;-68
2023/07/22 03:52:01;;;;;;;8.38;4.82;;;13.20;99.90;;;;;;5094944;28;20110;-68
2023/07/22 03:54:26;;;;;;;11.23;4.35;;;13.20;99.90;;;;;;5094850;28;20051;-68
2023/07/22 03:56:52;;;;;;;10.98;4.68;;;13.20;99.90;;;;;;5094459;28;20041;-68
2023/07/22 03:59:17;;;;;;;9.88;4.10;;;13.00;99.90;;;;;;5094421;28;20123;-68
2023/07/22 04:01:43;;;;;;;9.32;4.47;;;13.00;99.90;;;;;;5093608;28;20048;-68
2023/07/22 04:04:08;;;;;;;10.52;4.07;;;13.10;99.90;;;;;;5094795;28;20047;-68
2023/07/22 04:06:34;;;;;;;7.53;3.90;;;13.00;99.90;;;;;;5093008;28;20036;-68
2023/07/22 04:09:00;;;;;;;8.38;4.03;;;13.10;99.90;;;;;;5093336;28;20044;-68
2023/07/22 04:11:27;;;;;;;8.40;5.10;;;13.20;99.90;;;;;;5092463;28;20040;-68
2023/07/22 04:13:52;;;;;;;8.98;4.70;;;13.20;99.90;;;;;;5085086;28;20041;-68
2023/07/22 04:16:18;;;;;;;8.73;4.40;;;13.20;99.90;;;;;;5092676;28;20036;-68
2023/07/22 04:18:44;;;;;;;9.82;5.10;;;13.30;99.90;;;;;;5087081;28;20080;-68
2023/07/22 04:21:09;;;;;;;10.50;5.65;;;13.30;99.90;;;;;;5084485;28;20036;-68
2023/07/22 04:23:35;;;;;;;10.02;4.20;;;13.40;99.90;;;;;;5094244;28;20527;-68
2023/07/22 04:26:04;;;;;;;9.25;4.70;;;13.50;99.90;;;;;;5094067;28;20039;-68
2023/07/22 04:28:30;;;;;;;10.93;4.70;;;13.40;99.90;;;;;;5093709;28;20173;-68
2023/07/22 04:30:58;;;;;;;10.82;5.25;;;13.50;99.90;;;;;;5085527;28;20473;-68
2023/07/22 04:33:24;;;;;;;9.98;4.60;;;13.40;99.90;;;;;;5094283;28;20101;-68
2023/07/22 04:35:52;;;;;;;9.18;5.47;;;13.50;99.90;;;;;;5093872;28;20425;-68
2023/07/22 04:38:18;;;;;;;11.43;6.00;;;13.50;99.90;;;;;;5093577;28;20461;-68
2023/07/22 04:40:43;;;;;;;10.65;4.78;;;13.60;99.90;;;;;;5085297;28;20040;-68
2023/07/22 04:43:09;;;;;;;11.10;5.22;;;13.60;99.90;;;;;;5092448;28;20407;-68
2023/07/22 04:45:35;;;;;;;12.20;5.53;;;13.40;99.90;;;;;;5093991;28;20089;-68
2023/07/22 04:48:02;;;;;;;11.95;5.25;;;13.50;99.90;;;;;;5093531;28;20051;-68
2023/07/22 04:50:27;;;;;;;11.52;5.28;;;13.60;99.90;;;;;;5093883;28;20083;-68
2023/07/22 04:52:54;;;;;;;8.13;5.40;;;13.70;99.90;;;;;;5093741;28;20071;-68
2023/07/22 04:55:20;;;;;;;10.18;5.43;;;13.50;99.90;;;;;;5093671;28;20089;-68
2023/07/22 04:57:46;;;;;;;9.70;5.35;;;13.70;99.90;;;;;;5092906;28;20040;-68
2023/07/22 05:00:19;;;;;;;11.05;5.00;;;13.60;99.90;;;;;;5085256;28;20036;-68
2023/07/22 05:02:45;;;;;;;;;;;13.70;99.90;;;;;;5094135;28;20043;-68
2023/07/22 05:05:11;;;;;;;9.95;4.53;;;13.50;99.90;;;;;;5093626;28;19920;-68
2023/07/22 05:07:37;;;;;;;9.05;5.38;;;13.70;99.90;;;;;;5093113;28;20047;-68
2023/07/22 05:10:03;;;;;;;10.55;5.47;;;13.60;99.90;;;;;;5093297;28;20040;-68
2023/07/22 05:12:28;;;;;;;11.07;5.05;;;13.60;99.90;;;;;;5093211;28;20511;-68
2023/07/22 05:14:54;;;;;;;9.70;5.30;;;13.80;99.90;;;;;;5093430;28;20077;-68
2023/07/22 05:17:19;;;;;;;8.95;5.40;;;13.90;99.90;;;;;;5091706;28;20089;-68
2023/07/22 05:19:45;;;;;;;10.70;5.70;;;13.80;99.90;;;;;;5093027;28;20035;-68
2023/07/22 05:22:11;;;;;;;11.07;6.75;;;13.90;99.90;;;;;;5092060;28;20518;-68
2023/07/22 05:24:36;;;;;;;12.27;6.53;;;13.90;99.90;;;;;;5092741;28;20032;-68
2023/07/22 05:27:02;;;;;;;15.07;6.47;;;14.00;99.90;;;;;;5092703;28;20044;-68
2023/07/22 05:29:28;;;;;;;12.43;5.95;;;14.00;99.90;;;;;;5092876;28;20478;-68
2023/07/22 05:31:53;;;;;;;12.32;5.63;;;14.10;99.90;;;;;;5093067;28;20038;-68
2023/07/22 05:34:19;;;;;;;11.02;6.25;;;14.00;99.90;;;;;;5092875;28;20043;-68
2023/07/22 05:36:44;;;;;;;12.00;6.28;;;14.10;99.90;;;;;;5092627;28;20089;-68
2023/07/22 05:39:10;;;;;;;8.80;5.35;;;14.20;99.90;;;;;;5092916;28;20040;-68
2023/07/22 05:41:36;;;;;;;13.52;6.68;;;14.20;99.90;;;;;;5092701;28;20036;-68
2023/07/22 05:44:02;;;;;;;13.93;7.93;;;14.30;99.90;;;;;;5092822;28;20034;-68
2023/07/22 05:46:27;;;;;;;16.17;7.68;;;14.30;99.90;;;;;;5092522;28;20123;-68
2023/07/22 05:48:53;;;;;;;14.65;7.10;;;14.30;99.90;;;;;;5083971;28;20052;-68
2023/07/22 05:51:18;;;;;;;12.45;7.43;;;14.40;99.90;;;;;;5092560;28;20061;-68
2023/07/22 05:53:44;;;;;;;14.70;7.22;;;14.80;99.90;;;;;;5091165;28;20469;-68
2023/07/22 05:56:10;;;;;;;13.55;7.70;;;15.00;99.90;;;;;;5073846;28;20044;-68
2023/07/22 05:58:36;;;;;;;14.23;8.27;;;15.40;99.90;;;;;;5092415;28;20062;-68
2023/07/22 06:01:01;;;;;;;11.13;6.53;;;15.60;99.90;;;;;;5092531;28;20487;-68
2023/07/22 06:03:27;;;;;;;11.02;6.55;;;15.90;99.90;;;;;;5092463;28;20531;-68
2023/07/22 06:05:53;;;;;;;12.38;7.45;;;16.20;99.90;;;;;;5092087;28;20044;-68
2023/07/22 06:08:19;;;;;;;15.63;7.43;;;16.60;99.90;;;;;;5092012;28;20040;-69
2023/07/22 06:10:45;;;;;;;13.63;6.57;;;16.60;99.90;;;;;;5092174;28;20036;-68
2023/07/22 06:13:10;;;;;;;13.45;7.35;;;16.60;99.90;;;;;;5092188;28;20127;-68
2023/07/22 06:15:36;;;;;;;12.50;7.05;;;16.70;99.90;;;;;;5092149;28;20032;-68
2023/07/22 06:18:02;;;;;;;12.57;7.25;;;16.80;99.90;;;;;;5091806;28;20044;-68
2023/07/22 06:20:28;;;;;;;14.07;7.00;;;16.80;99.90;;;;;;5092169;28;20460;-68
2023/07/22 06:22:54;;;;;;;13.63;7.70;;;16.90;99.90;;;;;;5091961;28;20460;-68
2023/07/22 06:25:20;;;;;;;14.30;7.50;;;16.90;99.90;;;;;;5091816;28;20036;-68
2023/07/22 06:27:46;;;;;;;13.23;6.90;;;17.20;99.90;;;;;;5091665;28;20431;-68
2023/07/22 06:30:12;;;;;;;15.93;7.40;;;17.30;99.90;;;;;;5091985;28;20040;-68
2023/07/22 06:32:38;;;;;;;14.75;6.95;;;17.50;99.90;;;;;;5090658;28;20036;-68
2023/07/22 06:35:04;;;;;;;10.75;6.72;;;17.50;99.90;;;;;;5091508;28;20036;-68
2023/07/22 06:37:30;;;;;;;12.68;7.55;;;17.50;99.90;;;;;;5090542;28;20085;-68
2023/07/22 06:39:55;;;;;;;13.32;8.23;;;17.50;99.90;;;;;;5091549;28;20044;-68
2023/07/22 06:42:21;;;;;;;13.00;8.25;;;17.70;99.90;;;;;;5091885;28;20063;-68
2023/07/22 06:44:47;;;;;;;9.77;6.85;;;17.90;99.90;;;;;;5079946;28;20388;-68
2023/07/22 06:47:12;;;;;;;11.48;6.78;;;18.20;99.90;;;;;;5071431;28;20373;-68
2023/07/22 06:49:38;;;;;;;11.38;6.60;;;18.30;99.90;;;;;;5071571;28;20166;-68
2023/07/22 06:52:04;;;;;;;14.32;7.53;;;18.40;99.90;;;;;;5071574;28;20059;-68
2023/07/22 06:54:30;;;;;;;16.25;7.63;;;18.40;99.90;;;;;;5076990;28;20033;-68
2023/07/22 06:56:56;;;;;;;12.88;7.05;;;18.70;99.90;;;;;;5082793;28;20035;-68
2023/07/22 06:59:21;;;;;;;14.48;7.13;;;18.70;99.90;;;;;;5091578;28;20517;-68
2023/07/22 07:01:47;;;;;;;11.15;6.22;;;18.80;99.90;;;;;;5091676;28;20485;-68
2023/07/22 07:04:12;;;;;;;12.27;6.53;;;19.00;99.90;;;;;;5091653;28;20043;-68
2023/07/22 07:06:38;;;;;;;11.57;7.25;;;19.00;99.90;;;;;;5107083;28;20119;-68
2023/07/22 07:09:05;;;;;;;11.52;6.57;;;19.10;99.90;;;;;;5091321;28;20044;-68
2023/07/22 07:11:31;;;;;;;12.30;6.72;;;19.20;99.90;;;;;;5090245;28;20055;-68
2023/07/22 07:13:57;;;;;;;9.75;6.40;;;19.40;99.90;;;;;;5091562;28;20502;-68
2023/07/22 07:16:31;;;;;;;10.05;5.88;;;19.50;99.90;;;;;;5107118;28;20042;-68
2023/07/22 07:18:58;;;;;;;10.98;5.70;;;19.30;99.90;;;;;;5091477;28;20410;-68
2023/07/22 07:21:23;;;;;;;11.35;5.57;;;19.30;99.90;;;;;;5091320;28;20054;-68
2023/07/22 07:23:49;;;;;;;12.73;6.35;;;19.20;99.90;;;;;;5091581;28;20036;-68
2023/07/22 07:26:15;;;;;;;12.73;6.63;;;19.20;99.90;;;;;;5090991;28;20402;-68
2023/07/22 07:28:41;;;;;;;12.48;6.82;;;19.10;99.90;;;;;;5091387;28;20040;-68
2023/07/22 07:31:07;;;;;;;13.57;7.40;;;19.10;99.90;;;;;;5091478;28;20051;-68
2023/07/22 07:33:33;;;;;;;12.88;7.22;;;18.90;99.90;;;;;;5091357;28;20081;-68
2023/07/22 07:35:59;;;;;;;12.68;6.72;;;18.80;99.90;;;;;;5091134;28;20072;-68
2023/07/22 07:38:24;;;;;;;10.65;7.15;;;18.70;99.90;;;;;;5089779;28;20458;-68
2023/07/22 07:40:56;;;;;;;11.32;7.13;;;18.50;99.90;;;;;;5090054;28;20423;-68
2023/07/22 07:43:22;;;;;;;11.90;7.35;;;18.40;99.90;;;;;;5089932;28;20032;-68
2023/07/22 07:45:47;;;;;;;12.23;6.90;;;18.20;99.90;;;;;;5080883;28;20035;-68
2023/07/22 07:48:13;;;;;;;13.07;7.50;;;18.20;99.90;;;;;;5082710;28;20090;-68
2023/07/22 07:50:38;;;;;;;13.10;7.45;;;18.40;99.90;;;;;;5083274;28;20078;-68
2023/07/22 07:53:04;;;;;;;11.50;7.05;;;18.40;99.90;;;;;;5084084;28;20032;-68
2023/07/22 07:55:29;;;;;;;13.35;7.18;;;18.40;99.90;;;;;;5083942;28;20174;-68
2023/07/22 07:57:55;;;;;;;12.20;8.15;;;18.50;99.90;;;;;;5082659;28;20165;-68
2023/07/22 08:00:21;;;;;;;12.10;6.88;;;18.70;99.90;;;;;;5094678;28;20080;-68
2023/07/22 08:02:47;;;;;;;11.63;6.32;;;19.00;99.90;;;;;;5094649;28;20039;-68
2023/07/22 08:05:12;;;;;;;10.75;6.72;;;19.20;99.90;;;;;;5094480;28;20040;-68
2023/07/22 08:07:38;;;;;;;11.98;7.43;;;19.20;99.90;;;;;;5094412;28;20232;-68
2023/07/22 08:10:07;;;;;;;10.88;6.20;;;19.30;99.90;;;;;;5094586;28;20032;-68
2023/07/22 08:12:33;;;;;;;9.27;5.90;;;19.50;99.90;;;;;;5094551;28;20062;-69
2023/07/22 08:14:59;;;;;;;7.78;5.57;;;19.40;99.90;;;;;;5094511;28;20101;-68
2023/07/22 08:17:25;;;;;;;8.38;5.97;;;19.50;99.90;;;;;;5089354;28;20075;-68
2023/07/22 08:19:51;;;;;;;8.18;5.70;;;19.50;99.90;;;;;;5090365;28;20076;-68
2023/07/22 08:22:17;;;;;;;8.05;4.97;;;19.40;99.90;;;;;;5094198;28;20040;-68
2023/07/22 08:24:43;;;;;;;9.02;5.40;;;19.30;99.90;;;;;;5092775;28;20055;-68
2023/07/22 08:27:09;;;;;;;8.63;4.88;;;19.40;99.90;;;;;;5092273;28;20036;-68
2023/07/22 08:29:34;;;;;;;8.05;5.30;;;19.30;99.90;;;;;;5093816;28;20123;-68
2023/07/22 08:32:00;;;;;;;8.40;5.10;;;19.50;99.90;;;;;;5093682;28;20101;-68
2023/07/22 08:34:26;;;;;;;9.48;4.50;;;19.50;99.90;;;;;;5088699;28;20044;-68
2023/07/22 08:36:52;;;;;;;8.70;4.90;;;19.30;99.90;;;;;;5080798;28;20044;-68
2023/07/22 08:39:18;;;;;;;8.30;4.65;;;19.20;99.90;;;;;;5089777;28;20123;-67
2023/07/22 08:41:49;;;;;;;7.32;4.47;;;19.20;99.90;;;;;;5093572;28;20120;-68
2023/07/22 08:44:20;;;;;;;7.13;4.47;;;19.30;99.90;;;;;;5093298;28;20043;-68
2023/07/22 08:46:48;;;;;;;7.10;4.63;;;19.40;99.90;;;;;;5092993;28;20054;-68
2023/07/22 08:49:15;;;;;;;7.68;4.63;;;19.40;99.90;;;;;;5093225;28;20048;-68
2023/07/22 08:51:40;;;;;;;6.60;4.03;;;19.50;99.90;;;;;;5093118;28;20564;-67
2023/07/22 08:54:08;;;;;;;6.10;4.13;;;19.70;99.90;;;;;;5093099;28;20036;-68
2023/07/22 08:56:34;;;;;;;5.57;3.72;;;19.80;99.90;;;;;;5092714;28;20533;-68
2023/07/22 08:59:01;;;;;;;7.97;4.15;;;20.00;99.90;;;;;;5092511;28;20119;-67
2023/07/22 09:01:27;;;;;;;5.45;3.15;;;20.00;99.90;;;;;;5092986;28;20035;-68
2023/07/22 09:03:54;;;;;;;5.47;4.05;;;20.00;99.90;;;;;;5093167;28;20063;-68
2023/07/22 09:06:19;;;;;;;4.88;3.30;;;20.10;99.90;;;;;;5092879;28;20081;-68
2023/07/22 09:08:45;;;;;;;4.35;2.95;;;20.00;99.90;;;;;;5092784;28;20537;-68
2023/07/22 09:11:11;;;;;;;4.45;2.80;;;19.80;99.90;;;;;;5092809;28;20411;-68
2023/07/22 09:13:39;;;;;;;6.57;3.70;;;19.80;99.90;;;;;;5092882;28;20403;-68
2023/07/22 09:16:06;;;;;;;7.57;4.18;;;19.80;99.90;;;;;;5089290;28;20066;-68
2023/07/22 09:18:34;;;;;;;7.75;4.25;;;19.70;99.90;;;;;;5092438;28;20067;-67
2023/07/22 09:21:00;;;;;;;6.13;4.25;;;19.40;99.90;;;;;;5092734;28;20073;-67
2023/07/22 09:23:37;;;;;;;9.23;4.75;;;19.20;99.90;;;;;;5088889;28;20040;-68
2023/07/22 09:26:13;;;;;;;7.32;4.78;;;19.10;99.90;;;;;;5089767;28;20062;-67
2023/07/22 09:28:49;;;;;;;8.70;5.35;;;19.00;99.90;;;;;;5088902;28;20040;-67
2023/07/22 09:31:14;;;;;;;10.25;5.28;;;18.90;99.90;;;;;;5091889;28;20036;-68
2023/07/22 09:33:40;;;;;;;10.30;6.60;;;18.70;99.90;;;;;;5091970;28;20123;-68
2023/07/22 09:36:06;;;;;;;10.20;5.65;;;18.50;99.90;;;;;;5090758;28;20024;-68
2023/07/22 09:38:31;;;;;;;12.98;7.00;;;18.50;99.90;;;;;;5090827;28;20074;-67
2023/07/22 09:40:57;;;;;;;16.92;8.00;;;18.30;99.90;;;;;;5092171;28;20500;-67
2023/07/22 09:43:23;;;;;;;12.93;6.72;;;18.10;99.90;;;;;;5092455;28;20064;-67
2023/07/22 09:45:49;;;;;;;12.32;7.03;;;18.00;99.90;;;;;;5092302;28;20107;-67
2023/07/22 09:48:15;;;;;;;12.75;7.80;;;18.00;99.90;;;;;;5091980;28;20115;-67
2023/07/22 09:50:41;;;;;;;15.02;7.75;;;18.00;99.90;;;;;;5092222;28;20085;-67
2023/07/22 09:53:06;;;;;;;11.80;8.00;;;17.90;99.90;;;;;;5092038;28;20044;-67
2023/07/22 09:55:33;;;;;;;10.77;7.07;;;17.80;99.90;;;;;;5091872;28;20407;-67
2023/07/22 09:58:05;;;;;;;14.60;7.38;;;17.90;99.90;;;;;;5091632;28;20092;-67
2023/07/22 10:00:34;;;;;;;10.65;7.63;;;17.80;99.90;;;;;;5092145;28;20407;-67
2023/07/22 10:03:04;;;;;;;12.65;6.75;;;17.80;99.90;;;;;;5092002;28;20395;-67
2023/07/22 10:05:36;;;;;;;11.50;6.93;;;18.00;99.90;;;;;;5092441;28;20040;-67
2023/07/22 10:08:02;;;;;;;11.48;7.22;;;18.00;99.90;;;;;;5091369;28;20032;-68
2023/07/22 10:10:38;;;;;;;12.50;7.50;;;17.90;99.90;;;;;;5089888;28;20032;-67
2023/07/22 10:13:04;;;;;;;13.43;7.55;;;17.90;99.90;;;;;;5091818;28;20036;-68
2023/07/22 10:15:35;;;;;;;12.60;7.45;;;18.10;99.90;;;;;;5091694;28;20403;-68
2023/07/22 10:18:03;;;;;;;13.48;7.93;;;17.90;99.90;;;;;;5091256;28;20111;-67
2023/07/22 10:20:30;;;;;;;10.48;6.75;;;17.70;99.90;;;;;;5091670;28;20024;-68
2023/07/22 10:22:55;;;;;;;8.30;5.53;;;17.60;99.90;;;;;;5091409;28;20032;-67
2023/07/22 10:25:22;;;;;;;11.07;5.90;;;17.60;99.90;;;;;;5091844;28;20027;-67
2023/07/22 10:27:49;;;;;;;12.18;7.18;;;17.70;99.90;;;;;;5091168;28;20492;-67
2023/07/22 10:30:17;;;;;;;10.93;6.53;;;17.70;99.90;;;;;;5091628;28;20424;-68
2023/07/22 10:32:47;;;;;;;11.88;6.60;;;17.70;99.90;;;;;;5092135;28;20040;-68
2023/07/22 10:35:22;;;;;;;9.20;5.68;;;17.60;99.90;;;;;;5091391;28;20040;-68
2023/07/22 10:37:48;;;;;;;13.93;7.60;;;17.60;99.90;;;;;;5091492;28;20024;-68
2023/07/22 10:40:28;;;;;;;10.68;6.10;;;17.50;99.90;;;;;;5091494;28;20451;-68
2023/07/22 10:42:58;;;;;;;6.82;4.13;;;17.50;99.90;;;;;;5087032;28;20127;-67
2023/07/22 10:45:26;;;;;;;7.60;4.85;;;17.50;99.90;;;;;;5090307;28;20426;-68
2023/07/22 10:48:12;;;;;;;6.50;4.57;;;17.50;99.90;;;;;;5087268;28;20029;-68
2023/07/22 10:50:41;;;;;;;9.57;5.82;;;17.50;99.90;;;;;;5087402;28;20039;-68
2023/07/22 10:53:10;;;;;;;8.32;4.70;;;17.40;99.90;;;;;;5091189;28;20039;-68
2023/07/22 10:56:14;;;;;;;7.85;4.57;;;17.30;99.90;;;;;;5090840;28;20040;-68
2023/07/22 10:58:56;;;;;;;;;;;17.20;99.90;;;;;;5087867;28;20460;-67
2023/07/22 11:01:24;;;;;;;9.35;5.60;;;17.00;99.90;;;;;;5086257;28;19916;-67
2023/07/22 11:04:10;;;;;;;9.88;5.85;;;17.00;99.90;;;;;;5090997;28;20103;-67
2023/07/22 11:06:44;;;;;;;11.10;5.97;;;17.00;99.90;;;;;;5089143;28;20097;-67
2023/07/22 11:09:27;;;;;;;10.32;6.43;;;17.10;99.90;;;;;;5091108;28;20101;-67
2023/07/22 11:11:57;;;;;;;9.52;6.50;;;17.00;99.90;;;;;;5087654;28;20220;-67
2023/07/22 11:14:28;;;;;;;9.60;6.75;;;17.10;99.90;;;;;;5091134;28;20036;-67
2023/07/22 11:16:54;;;;;;;9.95;6.72;;;16.80;99.90;;;;;;5090602;28;20032;-67
2023/07/22 11:19:21;;;;;;;9.57;6.25;;;17.00;99.90;;;;;;5091079;28;20032;-67
2023/07/22 11:21:48;;;;;;;10.00;6.70;;;16.80;99.90;;;;;;5092494;28;20111;-67
2023/07/22 11:24:15;;;;;;;9.98;6.68;;;17.00;99.90;;;;;;5094880;28;20115;-68
2023/07/22 11:26:40;;;;;;;13.35;7.22;;;16.90;99.90;;;;;;5094672;28;20052;-67
2023/07/22 11:29:08;;;;;;;11.40;8.15;;;16.70;99.90;;;;;;5094559;28;20032;-67
2023/07/22 11:31:36;;;;;;;11.50;7.43;;;16.90;99.90;;;;;;5094582;28;20453;-67
2023/07/22 11:34:03;;;;;;;11.93;7.80;;;16.80;99.90;;;;;;5094789;28;20036;-67
2023/07/22 11:36:29;;;;;;;11.98;7.45;;;16.70;99.90;;;;;;5094434;28;20038;-68
2023/07/22 11:39:02;;;;;;;14.10;8.20;;;16.50;99.90;;;;;;5094623;28;20040;-67
2023/07/22 11:41:29;;;;;;;13.90;8.07;;;16.60;99.90;;;;;;5088917;28;20121;-67
2023/07/22 11:43:57;;;;;;;13.40;8.13;;;16.50;99.90;;;;;;5094403;28;20066;-67
2023/07/22 11:46:23;;;;;;;14.57;9.27;;;16.50;99.90;;;;;;5094309;28;20024;-67
2023/07/22 11:48:50;;;;;;;14.00;9.30;;;16.50;99.90;;;;;;5093389;28;20047;-67
2023/07/22 11:51:18;;;;;;;13.80;9.05;;;16.30;99.90;;;;;;5094094;28;20449;-67
2023/07/22 11:53:47;;;;;;;14.00;10.10;;;16.30;99.90;;;;;;5089643;28;20044;-67
2023/07/22 11:56:18;;;;;;;13.25;9.50;;;16.30;99.90;;;;;;5094047;28;21291;-67
2023/07/22 11:58:49;;;;;;;15.85;9.85;;;16.50;99.90;;;;;;5089206;28;20044;-67
2023/07/22 12:01:15;;;;;;;12.52;9.02;;;16.40;99.90;;;;;;5094447;28;20044;-68
2023/07/22 12:03:41;;;;;;;13.82;8.88;;;16.50;99.90;;;;;;5093208;28;20521;-68
2023/07/22 12:06:07;;;;;;;15.57;9.48;;;16.40;99.90;;;;;;5093885;28;20028;-68
2023/07/22 12:08:33;;;;;;;14.45;9.18;;;16.40;99.90;;;;;;5094219;28;20062;-69
2023/07/22 12:10:59;;;;;;;14.10;9.05;;;16.40;99.90;;;;;;5093894;28;20067;-68
2023/07/22 12:13:25;;;;;;;15.48;10.02;;;16.60;99.90;;;;;;5092687;28;20083;-69
2023/07/22 12:16:05;;;;;;;12.88;9.30;;;16.50;99.90;;;;;;5094095;28;20043;-68
2023/07/22 12:18:47;;;;;;;13.70;9.05;;;16.70;99.90;;;;;;5093765;28;20460;-68
2023/07/22 12:21:15;;;;;;;15.50;9.55;;;16.70;99.90;;;;;;5093896;28;20036;-69
2023/07/22 12:23:42;;;;;;;14.07;9.40;;;16.60;99.90;;;;;;5093685;28;20039;-69
2023/07/22 12:26:08;;;;;;;14.30;9.10;;;16.60;99.90;;;;;;5093597;28;20032;-69
2023/07/22 12:28:34;;;;;;;12.02;8.57;;;16.70;99.90;;;;;;5092235;28;20166;-69
2023/07/22 12:31:00;;;;;;;14.23;9.10;;;16.80;99.90;;;;;;5093658;28;20043;-69
2023/07/22 12:33:26;;;;;;;13.93;9.25;;;16.90;99.90;;;;;;5092744;28;20036;-69
2023/07/22 12:35:54;;;;;;;15.88;8.82;;;16.70;99.90;;;;;;5093224;28;20032;-69
2023/07/22 12:38:20;;;;;;;13.40;8.57;;;16.80;99.90;;;;;;5088101;28;20052;-69